sensor_id;sensor_type;location;lat;lon;timestamp;pressure;altitude;pressure_sealevel;temperature;humidity
50464;BME280;61746;37.534;-122.308;2022-07-01T00:00:01;101554.03;;;16.52;61.04
50464;BME280;61746;37.534;-122.308;2022-07-01T00:02:27;101549.53;;;16.45;61.04
50464;BME280;61746;37.534;-122.308;2022-07-01T00:04:53;101545.00;;;16.37;61.52
50464;BME280;61746;37.534;-122.308;2022-07-01T00:07:19;101549.69;;;16.28;62.05
50464;BME280;61746;37.534;-122.308;2022-07-01T00:09:45;101551.31;;;16.15;62.11
50464;BME280;61746;37.534;-122.308;2022-07-01T00:12:11;101533.22;;;16.07;62.65
50464;BME280;61746;37.534;-122.308;2022-07-01T00:14:37;101540.91;;;15.95;63.04
50464;BME280;61746;37.534;-122.308;2022-07-01T00:17:04;101541.09;;;15.94;62.81
50464;BME280;61746;37.534;-122.308;2022-07-01T00:19:30;101538.09;;;15.89;63.03
50464;BME280;61746;37.534;-122.308;2022-07-01T00:21:56;101542.50;;;15.90;63.83
50464;BME280;61746;37.534;-122.308;2022-07-01T00:24:22;101533.69;;;15.88;63.49
50464;BME280;61746;37.534;-122.308;2022-07-01T00:26:48;101534.75;;;15.78;63.54
50464;BME280;61746;37.534;-122.308;2022-07-01T00:29:14;101539.69;;;15.75;64.02
50464;BME280;61746;37.534;-122.308;2022-07-01T00:31:40;101544.34;;;15.66;64.10
50464;BME280;61746;37.534;-122.308;2022-07-01T00:34:07;101532.81;;;15.64;64.16
50464;BME280;61746;37.534;-122.308;2022-07-01T00:36:33;101530.25;;;15.63;64.62
50464;BME280;61746;37.534;-122.308;2022-07-01T00:38:59;101527.53;;;15.63;64.18
50464;BME280;61746;37.534;-122.308;2022-07-01T00:41:25;101525.69;;;15.55;64.53
50464;BME280;61746;37.534;-122.308;2022-07-01T00:43:51;101530.28;;;15.54;64.77
50464;BME280;61746;37.534;-122.308;2022-07-01T00:46:19;101522.97;;;15.55;64.80
50464;BME280;61746;37.534;-122.308;2022-07-01T00:48:45;101526.94;;;15.44;64.91
50464;BME280;61746;37.534;-122.308;2022-07-01T00:51:11;101519.69;;;15.37;64.83
50464;BME280;61746;37.534;-122.308;2022-07-01T00:53:38;101503.94;;;15.32;65.08
50464;BME280;61746;37.534;-122.308;2022-07-01T00:56:04;101503.78;;;15.25;65.62
50464;BME280;61746;37.534;-122.308;2022-07-01T00:58:31;101494.47;;;15.20;65.89
50464;BME280;61746;37.534;-122.308;2022-07-01T01:00:58;101494.66;;;15.18;65.88
50464;BME280;61746;37.534;-122.308;2022-07-01T01:03:25;101500.63;;;15.14;66.16
50464;BME280;61746;37.534;-122.308;2022-07-01T01:05:52;101493.31;;;15.14;66.46
50464;BME280;61746;37.534;-122.308;2022-07-01T01:08:20;101499.13;;;15.11;66.45
50464;BME280;61746;37.534;-122.308;2022-07-01T01:10:47;101507.94;;;15.05;66.65
50464;BME280;61746;37.534;-122.308;2022-07-01T01:13:14;101509.50;;;14.99;66.67
50464;BME280;61746;37.534;-122.308;2022-07-01T01:15:40;101513.75;;;14.94;66.89
50464;BME280;61746;37.534;-122.308;2022-07-01T01:18:06;101503.59;;;14.88;67.12
50464;BME280;61746;37.534;-122.308;2022-07-01T01:20:36;101513.94;;;14.84;67.41
50464;BME280;61746;37.534;-122.308;2022-07-01T01:23:03;101511.41;;;14.83;67.61
50464;BME280;61746;37.534;-122.308;2022-07-01T01:25:31;101512.97;;;14.77;67.59
50464;BME280;61746;37.534;-122.308;2022-07-01T01:27:58;101503.66;;;14.71;67.71
50464;BME280;61746;37.534;-122.308;2022-07-01T01:30:24;101501.78;;;14.72;67.92
50464;BME280;61746;37.534;-122.308;2022-07-01T01:32:51;101494.19;;;14.67;68.31
50464;BME280;61746;37.534;-122.308;2022-07-01T01:35:17;101490.28;;;14.62;68.46
50464;BME280;61746;37.534;-122.308;2022-07-01T01:37:43;101489.13;;;14.56;68.95
50464;BME280;61746;37.534;-122.308;2022-07-01T01:40:09;101495.91;;;14.52;68.98
50464;BME280;61746;37.534;-122.308;2022-07-01T01:42:39;101497.25;;;14.48;69.06
50464;BME280;61746;37.534;-122.308;2022-07-01T01:45:06;101499.13;;;14.47;69.25
50464;BME280;61746;37.534;-122.308;2022-07-01T01:47:32;101502.69;;;14.40;69.36
50464;BME280;61746;37.534;-122.308;2022-07-01T01:49:58;101513.19;;;14.35;69.48
50464;BME280;61746;37.534;-122.308;2022-07-01T01:52:25;101509.13;;;14.31;69.66
50464;BME280;61746;37.534;-122.308;2022-07-01T01:54:51;101503.69;;;14.22;70.14
50464;BME280;61746;37.534;-122.308;2022-07-01T01:57:17;101512.50;;;14.16;70.36
50464;BME280;61746;37.534;-122.308;2022-07-01T01:59:43;101514.22;;;14.09;70.57
50464;BME280;61746;37.534;-122.308;2022-07-01T02:02:09;101516.59;;;14.04;70.61
50464;BME280;61746;37.534;-122.308;2022-07-01T02:04:35;101522.16;;;14.02;70.93
50464;BME280;61746;37.534;-122.308;2022-07-01T02:07:02;101514.53;;;13.98;71.24
50464;BME280;61746;37.534;-122.308;2022-07-01T02:09:28;101512.19;;;13.95;71.50
50464;BME280;61746;37.534;-122.308;2022-07-01T02:11:55;101520.81;;;13.90;71.45
50464;BME280;61746;37.534;-122.308;2022-07-01T02:14:21;101512.16;;;13.87;71.87
50464;BME280;61746;37.534;-122.308;2022-07-01T02:16:47;101517.75;;;13.85;71.92
50464;BME280;61746;37.534;-122.308;2022-07-01T02:19:13;101523.84;;;13.79;72.10
50464;BME280;61746;37.534;-122.308;2022-07-01T02:21:39;101516.22;;;13.74;72.43
50464;BME280;61746;37.534;-122.308;2022-07-01T02:24:06;101514.84;;;13.70;72.73
50464;BME280;61746;37.534;-122.308;2022-07-01T02:26:32;101512.81;;;13.64;72.70
50464;BME280;61746;37.534;-122.308;2022-07-01T02:28:58;101515.53;;;13.64;72.79
50464;BME280;61746;37.534;-122.308;2022-07-01T02:31:24;101511.44;;;13.60;73.02
50464;BME280;61746;37.534;-122.308;2022-07-01T02:33:50;101518.72;;;13.60;72.99
50464;BME280;61746;37.534;-122.308;2022-07-01T02:36:16;101519.03;;;13.57;73.05
50464;BME280;61746;37.534;-122.308;2022-07-01T02:38:42;101513.09;;;13.53;73.15
50464;BME280;61746;37.534;-122.308;2022-07-01T02:41:08;101517.19;;;13.49;73.38
50464;BME280;61746;37.534;-122.308;2022-07-01T02:43:36;101512.25;;;13.44;73.65
50464;BME280;61746;37.534;-122.308;2022-07-01T02:46:02;101504.81;;;13.38;73.70
50464;BME280;61746;37.534;-122.308;2022-07-01T02:48:28;101511.56;;;13.34;73.98
50464;BME280;61746;37.534;-122.308;2022-07-01T02:50:55;101512.34;;;13.27;74.59
50464;BME280;61746;37.534;-122.308;2022-07-01T02:53:21;101513.84;;;13.21;74.42
50464;BME280;61746;37.534;-122.308;2022-07-01T02:55:47;101513.47;;;13.16;74.96
50464;BME280;61746;37.534;-122.308;2022-07-01T02:58:13;101511.44;;;13.10;74.88
50464;BME280;61746;37.534;-122.308;2022-07-01T03:00:39;101510.75;;;13.08;75.19
50464;BME280;61746;37.534;-122.308;2022-07-01T03:03:05;101513.78;;;13.05;75.23
50464;BME280;61746;37.534;-122.308;2022-07-01T03:05:31;101529.47;;;13.01;75.20
50464;BME280;61746;37.534;-122.308;2022-07-01T03:07:58;101525.25;;;12.98;75.73
50464;BME280;61746;37.534;-122.308;2022-07-01T03:10:24;101525.72;;;12.94;75.95
50464;BME280;61746;37.534;-122.308;2022-07-01T03:12:50;101526.38;;;12.88;75.98
50464;BME280;61746;37.534;-122.308;2022-07-01T03:15:16;101533.97;;;12.84;76.00
50464;BME280;61746;37.534;-122.308;2022-07-01T03:17:45;101533.25;;;12.82;76.19
50464;BME280;61746;37.534;-122.308;2022-07-01T03:20:13;101525.47;;;12.79;76.15
50464;BME280;61746;37.534;-122.308;2022-07-01T03:22:41;101524.94;;;12.76;76.31
50464;BME280;61746;37.534;-122.308;2022-07-01T03:25:07;101528.13;;;12.71;76.48
50464;BME280;61746;37.534;-122.308;2022-07-01T03:27:35;101527.75;;;12.66;76.89
50464;BME280;61746;37.534;-122.308;2022-07-01T03:30:05;101531.63;;;12.63;77.11
50464;BME280;61746;37.534;-122.308;2022-07-01T03:32:32;101533.13;;;12.58;76.93
50464;BME280;61746;37.534;-122.308;2022-07-01T03:34:58;101525.50;;;12.53;77.18
50464;BME280;61746;37.534;-122.308;2022-07-01T03:37:24;101534.06;;;12.49;77.85
50464;BME280;61746;37.534;-122.308;2022-07-01T03:39:50;101532.69;;;12.44;78.19
50464;BME280;61746;37.534;-122.308;2022-07-01T03:42:16;101543.78;;;12.41;78.37
50464;BME280;61746;37.534;-122.308;2022-07-01T03:44:43;101540.41;;;12.39;78.58
50464;BME280;61746;37.534;-122.308;2022-07-01T03:47:12;101543.28;;;12.38;78.09
50464;BME280;61746;37.534;-122.308;2022-07-01T03:49:39;101544.31;;;12.37;78.21
50464;BME280;61746;37.534;-122.308;2022-07-01T03:52:05;101540.88;;;12.35;78.36
50464;BME280;61746;37.534;-122.308;2022-07-01T03:54:52;101548.16;;;12.34;78.92
50464;BME280;61746;37.534;-122.308;2022-07-01T03:57:18;101551.84;;;12.33;78.62
50464;BME280;61746;37.534;-122.308;2022-07-01T03:59:47;101550.16;;;12.32;78.47
50464;BME280;61746;37.534;-122.308;2022-07-01T04:02:13;101561.13;;;12.31;78.59
50464;BME280;61746;37.534;-122.308;2022-07-01T04:04:39;101560.59;;;12.27;78.74
50464;BME280;61746;37.534;-122.308;2022-07-01T04:07:08;101556.34;;;12.25;78.94
50464;BME280;61746;37.534;-122.308;2022-07-01T04:09:37;101556.66;;;12.22;79.10
50464;BME280;61746;37.534;-122.308;2022-07-01T04:12:03;101553.44;;;12.18;79.29
50464;BME280;61746;37.534;-122.308;2022-07-01T04:14:33;101550.84;;;12.16;79.61
50464;BME280;61746;37.534;-122.308;2022-07-01T04:16:59;101552.72;;;12.16;79.75
50464;BME280;61746;37.534;-122.308;2022-07-01T04:19:25;101557.13;;;12.17;79.83
50464;BME280;61746;37.534;-122.308;2022-07-01T04:21:52;101553.56;;;12.16;79.57
50464;BME280;61746;37.534;-122.308;2022-07-01T04:24:36;101560.69;;;12.17;79.96
50464;BME280;61746;37.534;-122.308;2022-07-01T04:27:03;101545.44;;;12.16;80.06
50464;BME280;61746;37.534;-122.308;2022-07-01T04:29:29;101545.44;;;12.16;79.70
50464;BME280;61746;37.534;-122.308;2022-07-01T04:31:56;101550.72;;;12.18;80.32
50464;BME280;61746;37.534;-122.308;2022-07-01T04:34:24;101550.00;;;12.16;80.22
50464;BME280;61746;37.534;-122.308;2022-07-01T04:36:50;101551.19;;;12.13;80.33
50464;BME280;61746;37.534;-122.308;2022-07-01T04:39:17;101550.47;;;12.11;80.41
50464;BME280;61746;37.534;-122.308;2022-07-01T04:41:43;101556.88;;;12.10;80.38
50464;BME280;61746;37.534;-122.308;2022-07-01T04:44:37;101553.81;;;12.05;80.36
50464;BME280;61746;37.534;-122.308;2022-07-01T04:47:04;101558.34;;;12.05;80.84
50464;BME280;61746;37.534;-122.308;2022-07-01T04:49:30;101556.84;;;12.02;80.58
50464;BME280;61746;37.534;-122.308;2022-07-01T04:51:57;101558.81;;;12.00;80.72
50464;BME280;61746;37.534;-122.308;2022-07-01T04:54:24;101555.97;;;12.02;80.78
50464;BME280;61746;37.534;-122.308;2022-07-01T04:56:51;101562.38;;;12.01;80.57
50464;BME280;61746;37.534;-122.308;2022-07-01T04:59:18;101565.91;;;12.01;80.68
50464;BME280;61746;37.534;-122.308;2022-07-01T05:01:46;101573.16;;;12.01;80.58
50464;BME280;61746;37.534;-122.308;2022-07-01T05:04:16;101565.41;;;11.98;80.59
50464;BME280;61746;37.534;-122.308;2022-07-01T05:06:42;101572.66;;;11.97;80.98
50464;BME280;61746;37.534;-122.308;2022-07-01T05:09:11;101571.94;;;11.95;81.22
50464;BME280;61746;37.534;-122.308;2022-07-01T05:11:38;101575.47;;;11.95;81.28
50464;BME280;61746;37.534;-122.308;2022-07-01T05:14:05;101581.72;;;11.96;81.25
50464;BME280;61746;37.534;-122.308;2022-07-01T05:16:32;101583.75;;;11.94;80.86
50464;BME280;61746;37.534;-122.308;2022-07-01T05:18:59;101584.75;;;11.93;81.29
50464;BME280;61746;37.534;-122.308;2022-07-01T05:21:43;101591.00;;;11.93;81.22
50464;BME280;61746;37.534;-122.308;2022-07-01T05:24:24;101590.84;;;11.95;81.35
50464;BME280;61746;37.534;-122.308;2022-07-01T05:26:53;101594.25;;;11.97;81.70
50464;BME280;61746;37.534;-122.308;2022-07-01T05:29:20;101582.59;;;11.97;81.18
50464;BME280;61746;37.534;-122.308;2022-07-01T05:31:46;101592.53;;;11.96;81.45
50464;BME280;61746;37.534;-122.308;2022-07-01T05:34:12;101597.78;;;11.98;81.35
50464;BME280;61746;37.534;-122.308;2022-07-01T05:36:38;101595.09;;;11.98;81.50
50464;BME280;61746;37.534;-122.308;2022-07-01T05:39:04;101596.78;;;11.99;81.57
50464;BME280;61746;37.534;-122.308;2022-07-01T05:41:31;101598.66;;;11.98;81.25
50464;BME280;61746;37.534;-122.308;2022-07-01T05:43:58;101601.50;;;11.97;81.43
50464;BME280;61746;37.534;-122.308;2022-07-01T05:46:24;101597.94;;;11.96;81.38
50464;BME280;61746;37.534;-122.308;2022-07-01T05:48:50;101596.25;;;11.95;81.77
50464;BME280;61746;37.534;-122.308;2022-07-01T05:51:16;101587.28;;;11.94;81.73
50464;BME280;61746;37.534;-122.308;2022-07-01T05:53:42;101592.84;;;11.93;81.56
50464;BME280;61746;37.534;-122.308;2022-07-01T05:56:09;101589.31;;;11.92;81.41
50464;BME280;61746;37.534;-122.308;2022-07-01T05:58:35;101588.47;;;11.92;81.72
50464;BME280;61746;37.534;-122.308;2022-07-01T06:01:02;101582.06;;;11.93;81.67
50464;BME280;61746;37.534;-122.308;2022-07-01T06:03:28;101591.69;;;11.95;81.76
50464;BME280;61746;37.534;-122.308;2022-07-01T06:05:54;101587.13;;;11.96;81.66
50464;BME280;61746;37.534;-122.308;2022-07-01T06:08:20;101589.69;;;11.98;81.67
50464;BME280;61746;37.534;-122.308;2022-07-01T06:10:46;101589.53;;;11.99;81.59
50464;BME280;61746;37.534;-122.308;2022-07-01T06:13:12;101592.06;;;12.01;81.16
50464;BME280;61746;37.534;-122.308;2022-07-01T06:15:40;101578.72;;;11.99;81.12
50464;BME280;61746;37.534;-122.308;2022-07-01T06:18:06;101582.13;;;12.01;80.88
50464;BME280;61746;37.534;-122.308;2022-07-01T06:20:32;101574.88;;;12.02;80.97
50464;BME280;61746;37.534;-122.308;2022-07-01T06:22:58;101580.13;;;12.03;81.10
50464;BME280;61746;37.534;-122.308;2022-07-01T06:25:24;101575.41;;;12.05;80.91
50464;BME280;61746;37.534;-122.308;2022-07-01T06:27:50;101577.09;;;12.06;81.15
50464;BME280;61746;37.534;-122.308;2022-07-01T06:30:16;101578.66;;;12.09;81.29
50464;BME280;61746;37.534;-122.308;2022-07-01T06:32:42;101573.25;;;12.09;81.27
50464;BME280;61746;37.534;-122.308;2022-07-01T06:35:09;101575.97;;;12.09;81.20
50464;BME280;61746;37.534;-122.308;2022-07-01T06:37:35;101577.81;;;12.08;81.22
50464;BME280;61746;37.534;-122.308;2022-07-01T06:40:03;101575.78;;;12.10;81.06
50464;BME280;61746;37.534;-122.308;2022-07-01T06:42:30;101571.09;;;12.12;81.18
50464;BME280;61746;37.534;-122.308;2022-07-01T06:44:56;101571.78;;;12.14;80.91
50464;BME280;61746;37.534;-122.308;2022-07-01T06:47:22;101568.06;;;12.15;80.90
50464;BME280;61746;37.534;-122.308;2022-07-01T06:49:48;101574.19;;;12.17;80.65
50464;BME280;61746;37.534;-122.308;2022-07-01T06:52:14;101580.44;;;12.18;80.96
50464;BME280;61746;37.534;-122.308;2022-07-01T06:54:41;101577.41;;;12.21;80.73
50464;BME280;61746;37.534;-122.308;2022-07-01T06:57:07;101579.97;;;12.23;80.60
50464;BME280;61746;37.534;-122.308;2022-07-01T06:59:33;101572.88;;;12.22;80.65
50464;BME280;61746;37.534;-122.308;2022-07-01T07:01:59;101573.56;;;12.24;81.17
50464;BME280;61746;37.534;-122.308;2022-07-01T07:04:26;101575.25;;;12.25;81.10
50464;BME280;61746;37.534;-122.308;2022-07-01T07:06:52;101561.75;;;12.25;81.26
50464;BME280;61746;37.534;-122.308;2022-07-01T07:09:18;101569.84;;;12.25;81.26
50464;BME280;61746;37.534;-122.308;2022-07-01T07:11:44;101561.75;;;12.25;81.00
50464;BME280;61746;37.534;-122.308;2022-07-01T07:14:10;101567.84;;;12.27;81.07
50464;BME280;61746;37.534;-122.308;2022-07-01T07:16:37;101567.69;;;12.28;81.02
50464;BME280;61746;37.534;-122.308;2022-07-01T07:19:03;101562.44;;;12.27;80.74
50464;BME280;61746;37.534;-122.308;2022-07-01T07:21:29;101557.91;;;12.27;80.88
50464;BME280;61746;37.534;-122.308;2022-07-01T07:23:56;101563.13;;;12.29;80.61
50464;BME280;61746;37.534;-122.308;2022-07-01T07:26:22;101562.97;;;12.30;80.88
50464;BME280;61746;37.534;-122.308;2022-07-01T07:28:49;101563.81;;;12.31;80.64
50464;BME280;61746;37.534;-122.308;2022-07-01T07:31:16;101557.44;;;12.32;80.54
50464;BME280;61746;37.534;-122.308;2022-07-01T07:33:42;101560.25;;;12.30;80.32
50464;BME280;61746;37.534;-122.308;2022-07-01T07:36:08;101558.28;;;12.32;80.58
50464;BME280;61746;37.534;-122.308;2022-07-01T07:38:37;101550.31;;;12.31;80.25
50464;BME280;61746;37.534;-122.308;2022-07-01T07:41:03;101546.63;;;12.32;80.53
50464;BME280;61746;37.534;-122.308;2022-07-01T07:43:30;101541.22;;;12.32;80.73
50464;BME280;61746;37.534;-122.308;2022-07-01T07:45:56;101543.75;;;12.33;80.66
50464;BME280;61746;37.534;-122.308;2022-07-01T07:48:22;101540.22;;;12.33;80.29
50464;BME280;61746;37.534;-122.308;2022-07-01T07:50:48;101547.59;;;12.31;80.10
50464;BME280;61746;37.534;-122.308;2022-07-01T07:53:14;101552.16;;;12.30;80.29
50464;BME280;61746;37.534;-122.308;2022-07-01T07:55:40;101545.75;;;12.31;80.37
50464;BME280;61746;37.534;-122.308;2022-07-01T07:58:07;101544.78;;;12.32;80.13
50464;BME280;61746;37.534;-122.308;2022-07-01T08:00:33;101547.31;;;12.34;80.24
50464;BME280;61746;37.534;-122.308;2022-07-01T08:02:59;101541.06;;;12.33;80.32
50464;BME280;61746;37.534;-122.308;2022-07-01T08:05:25;101544.59;;;12.34;80.18
50464;BME280;61746;37.534;-122.308;2022-07-01T08:07:51;101543.59;;;12.35;79.90
50464;BME280;61746;37.534;-122.308;2022-07-01T08:10:18;101543.75;;;12.33;79.96
50464;BME280;61746;37.534;-122.308;2022-07-01T08:12:44;101541.91;;;12.34;80.11
50464;BME280;61746;37.534;-122.308;2022-07-01T08:15:10;101545.44;;;12.34;79.91
50464;BME280;61746;37.534;-122.308;2022-07-01T08:17:37;101542.75;;;12.34;80.11
50464;BME280;61746;37.534;-122.308;2022-07-01T08:20:03;101543.59;;;12.35;80.29
50464;BME280;61746;37.534;-122.308;2022-07-01T08:22:29;101547.31;;;12.34;80.16
50464;BME280;61746;37.534;-122.308;2022-07-01T08:24:56;101549.00;;;12.35;79.99
50464;BME280;61746;37.534;-122.308;2022-07-01T08:27:22;101551.69;;;12.35;79.92
50464;BME280;61746;37.534;-122.308;2022-07-01T08:29:48;101550.84;;;12.34;79.73
50464;BME280;61746;37.534;-122.308;2022-07-01T08:32:14;101546.47;;;12.33;80.01
50464;BME280;61746;37.534;-122.308;2022-07-01T08:34:40;101550.69;;;12.36;79.70
50464;BME280;61746;37.534;-122.308;2022-07-01T08:37:06;101545.28;;;12.36;79.71
50464;BME280;61746;37.534;-122.308;2022-07-01T08:39:32;101551.41;;;12.38;79.95
50464;BME280;61746;37.534;-122.308;2022-07-01T08:41:59;101547.00;;;12.37;79.81
50464;BME280;61746;37.534;-122.308;2022-07-01T08:44:25;101545.16;;;12.37;79.91
50464;BME280;61746;37.534;-122.308;2022-07-01T08:46:52;101543.28;;;12.38;79.74
50464;BME280;61746;37.534;-122.308;2022-07-01T08:49:18;101545.16;;;12.37;79.76
50464;BME280;61746;37.534;-122.308;2022-07-01T08:51:44;101547.00;;;12.37;80.05
50464;BME280;61746;37.534;-122.308;2022-07-01T08:54:10;101543.59;;;12.35;79.86
50464;BME280;61746;37.534;-122.308;2022-07-01T08:56:36;101545.59;;;12.33;79.96
50464;BME280;61746;37.534;-122.308;2022-07-01T08:59:24;101538.53;;;12.32;79.75
50464;BME280;61746;37.534;-122.308;2022-07-01T09:01:58;101537.34;;;12.34;79.84
50464;BME280;61746;37.534;-122.308;2022-07-01T09:04:26;101533.13;;;12.32;80.06
50464;BME280;61746;37.534;-122.308;2022-07-01T09:07:00;101536.50;;;12.34;80.00
50464;BME280;61746;37.534;-122.308;2022-07-01T09:09:27;101529.41;;;12.33;79.88
50464;BME280;61746;37.534;-122.308;2022-07-01T09:11:54;101533.97;;;12.32;80.19
50464;BME280;61746;37.534;-122.308;2022-07-01T09:14:23;101533.13;;;12.32;80.21
50464;BME280;61746;37.534;-122.308;2022-07-01T09:17:00;101533.97;;;12.32;79.87
50464;BME280;61746;37.534;-122.308;2022-07-01T09:19:28;101527.72;;;12.32;79.95
50464;BME280;61746;37.534;-122.308;2022-07-01T09:21:59;101525.69;;;12.34;80.02
50464;BME280;61746;37.534;-122.308;2022-07-01T09:24:36;101525.47;;;12.27;79.94
50464;BME280;61746;37.534;-122.308;2022-07-01T09:27:05;101528.00;;;12.29;80.14
50464;BME280;61746;37.534;-122.308;2022-07-01T09:29:47;101519.91;;;12.29;80.13
50464;BME280;61746;37.534;-122.308;2022-07-01T09:32:17;101533.41;;;12.29;80.31
50464;BME280;61746;37.534;-122.308;2022-07-01T09:34:45;101528.00;;;12.29;80.46
50464;BME280;61746;37.534;-122.308;2022-07-01T09:37:15;101533.41;;;12.29;80.44
50464;BME280;61746;37.534;-122.308;2022-07-01T09:39:53;101520.91;;;12.28;80.58
50464;BME280;61746;37.534;-122.308;2022-07-01T09:42:21;101524.28;;;12.30;80.52
50464;BME280;61746;37.534;-122.308;2022-07-01T09:44:59;101524.63;;;12.27;80.53
50464;BME280;61746;37.534;-122.308;2022-07-01T09:47:29;101518.22;;;12.28;80.52
50464;BME280;61746;37.534;-122.308;2022-07-01T09:49:56;101522.78;;;12.27;80.63
50464;BME280;61746;37.534;-122.308;2022-07-01T09:52:23;101520.06;;;12.27;80.43
50464;BME280;61746;37.534;-122.308;2022-07-01T09:54:50;101523.75;;;12.26;80.80
50464;BME280;61746;37.534;-122.308;2022-07-01T09:57:18;101524.94;;;12.24;80.89
50464;BME280;61746;37.534;-122.308;2022-07-01T09:59:44;101522.91;;;12.26;80.94
50464;BME280;61746;37.534;-122.308;2022-07-01T10:02:12;101522.22;;;12.24;81.00
50464;BME280;61746;37.534;-122.308;2022-07-01T10:04:45;101517.84;;;12.23;80.81
50464;BME280;61746;37.534;-122.308;2022-07-01T10:12:53;101521.56;;;12.22;81.13
50464;BME280;61746;37.534;-122.308;2022-07-01T10:15:21;101522.53;;;12.20;81.11
50464;BME280;61746;37.534;-122.308;2022-07-01T10:17:49;101520.00;;;12.19;81.03
50464;BME280;61746;37.534;-122.308;2022-07-01T10:20:23;101519.31;;;12.17;81.28
50464;BME280;61746;37.534;-122.308;2022-07-01T10:22:50;101520.28;;;12.16;81.33
50464;BME280;61746;37.534;-122.308;2022-07-01T10:25:38;101517.75;;;12.14;81.08
50464;BME280;61746;37.534;-122.308;2022-07-01T10:33:33;101515.69;;;12.08;81.41
50464;BME280;61746;37.534;-122.308;2022-07-01T10:36:06;101511.13;;;12.09;81.36
50464;BME280;61746;37.534;-122.308;2022-07-01T10:38:33;101514.69;;;12.09;81.68
50464;BME280;61746;37.534;-122.308;2022-07-01T10:41:00;101520.09;;;12.09;81.42
50464;BME280;61746;37.534;-122.308;2022-07-01T10:43:48;101517.53;;;12.08;81.48
50464;BME280;61746;37.534;-122.308;2022-07-01T10:46:37;101515.16;;;12.05;81.27
50464;BME280;61746;37.534;-122.308;2022-07-01T10:52:22;101516.16;;;12.04;81.55
50464;BME280;61746;37.534;-122.308;2022-07-01T10:54:51;101517.00;;;12.04;81.51
50464;BME280;61746;37.534;-122.308;2022-07-01T10:57:21;101518.84;;;12.04;81.77
50464;BME280;61746;37.534;-122.308;2022-07-01T10:59:52;101508.06;;;12.04;81.54
50464;BME280;61746;37.534;-122.308;2022-07-01T11:04:47;101514.47;;;12.03;81.70
50464;BME280;61746;37.534;-122.308;2022-07-01T11:07:13;101508.91;;;12.04;81.63
50464;BME280;61746;37.534;-122.308;2022-07-01T11:09:39;101514.13;;;12.06;81.39
50464;BME280;61746;37.534;-122.308;2022-07-01T11:12:06;101510.59;;;12.05;81.37
50464;BME280;61746;37.534;-122.308;2022-07-01T11:14:37;101510.59;;;12.05;81.56
50464;BME280;61746;37.534;-122.308;2022-07-01T11:17:04;101517.69;;;12.06;81.40
50464;BME280;61746;37.534;-122.308;2022-07-01T11:19:31;101512.28;;;12.06;81.62
50464;BME280;61746;37.534;-122.308;2022-07-01T11:21:57;101507.88;;;12.05;81.75
50464;BME280;61746;37.534;-122.308;2022-07-01T11:24:23;101503.50;;;12.04;81.77
50464;BME280;61746;37.534;-122.308;2022-07-01T11:26:50;101507.88;;;12.05;81.72
50464;BME280;61746;37.534;-122.308;2022-07-01T11:29:27;101502.47;;;12.05;82.08
50464;BME280;61746;37.534;-122.308;2022-07-01T11:31:54;101499.78;;;12.05;81.76
50464;BME280;61746;37.534;-122.308;2022-07-01T11:34:20;101495.22;;;12.06;82.15
50464;BME280;61746;37.534;-122.308;2022-07-01T11:36:47;101498.41;;;12.01;81.92
50464;BME280;61746;37.534;-122.308;2022-07-01T11:39:33;101495.00;;;11.99;81.75
50464;BME280;61746;37.534;-122.308;2022-07-01T11:42:06;101492.16;;;12.01;81.78
50464;BME280;61746;37.534;-122.308;2022-07-01T11:44:41;101491.31;;;12.00;81.81
50464;BME280;61746;37.534;-122.308;2022-07-01T11:47:22;101495.19;;;11.98;81.53
50464;BME280;61746;37.534;-122.308;2022-07-01T11:49:50;101498.00;;;11.96;81.87
50464;BME280;61746;37.534;-122.308;2022-07-01T11:52:17;101495.47;;;11.94;81.71
50464;BME280;61746;37.534;-122.308;2022-07-01T11:54:48;101500.19;;;11.92;81.91
50464;BME280;61746;37.534;-122.308;2022-07-01T11:57:22;101497.97;;;11.88;81.93
50464;BME280;61746;37.534;-122.308;2022-07-01T11:59:52;101504.22;;;11.88;82.30
50464;BME280;61746;37.534;-122.308;2022-07-01T12:02:20;101498.97;;;11.87;82.29
50464;BME280;61746;37.534;-122.308;2022-07-01T12:04:51;101489.88;;;11.88;82.42
50464;BME280;61746;37.534;-122.308;2022-07-01T12:07:20;101491.72;;;11.87;82.08
50464;BME280;61746;37.534;-122.308;2022-07-01T12:09:48;101497.13;;;11.87;82.06
50464;BME280;61746;37.534;-122.308;2022-07-01T12:12:19;101492.72;;;11.86;81.94
50464;BME280;61746;37.534;-122.308;2022-07-01T12:14:52;101488.63;;;11.82;82.14
50464;BME280;61746;37.534;-122.308;2022-07-01T12:17:19;101491.00;;;11.85;82.41
50464;BME280;61746;37.534;-122.308;2022-07-01T12:19:46;101494.72;;;11.84;82.41
50464;BME280;61746;37.534;-122.308;2022-07-01T12:22:14;101502.81;;;11.84;82.45
50464;BME280;61746;37.534;-122.308;2022-07-01T12:24:50;101497.56;;;11.83;82.41
50464;BME280;61746;37.534;-122.308;2022-07-01T12:27:16;101501.38;;;11.80;81.93
50464;BME280;61746;37.534;-122.308;2022-07-01T12:32:13;101508.63;;;11.80;82.13
50464;BME280;61746;37.534;-122.308;2022-07-01T12:34:47;101507.78;;;11.79;82.24
50464;BME280;61746;37.534;-122.308;2022-07-01T12:37:19;101502.22;;;11.81;82.53
50464;BME280;61746;37.534;-122.308;2022-07-01T12:39:55;101515.06;;;11.79;82.63
50464;BME280;61746;37.534;-122.308;2022-07-01T12:42:25;101512.34;;;11.79;82.54